チャーチル空港の過去48時間の天気

チャーチル空港 (Churchill)

現在時刻: 1/20 23:03 CST (1/21 05:03 UTC) 以下の時間は現地時間です。

過去48時間のMETAR気象情報
時間 風向 風速(m/s) 視程 気温(℃) 湿度(%) 気圧(hPa) 天気現象
20 22:00 北東 3 10km以上 -22 84 1011.2
20 21:00 北東 4 10km以上 -22 77 1010.5
20 20:00 北東 5 10km以上 -23 84 1009.7
20 19:00 東北東 5 10km以上 -23 84 1008.7
20 18:27 東北東 5 10km以上 -22 84 1008.1
20 18:00 東北東 5 10km以上 -21 84 1007.6
20 17:00 東北東 6 10km以上 -21 84 1006.5
20 16:00 東北東 6 10km以上 -20 84 1005.2
20 15:00 東北東 7 10km以上 -20 84 1003.9
20 14:15 6 10km以上 -20 77 1003
20 14:00 6 10km以上 -20 77 1002.7
20 13:00 5 10km以上 -21 84 1002.2
20 12:00 7 10km以上 -20 84 1001.3
20 11:52 7 10km以上 -20 84 1001.1
20 11:00 8 10km以上 -19 84 1000.4 弱い雪 低い地吹雪
20 10:00 6 10km以上 -19 84 999.7 弱い雪
20 09:00 8 10km以上 -20 84 999 弱い雪
20 08:00 6 10km以上 -20 84 998.9 弱い雪 低い地吹雪
20 07:00 7 10km以上 -21 84 998.4 弱い雪
20 06:17 東南東 7 10km以上 -20 77 998.3 弱い雪
20 06:00 東南東 7 10km以上 -21 84 998.2 弱い雪
20 05:00 6 10km以上 -22 77 998.2 弱い雪
20 04:00 東南東 6 10km以上 -24 76 998.9 弱い雪
20 03:00 南東 5 10km以上 -26 83 999.7
20 02:00 南東 6 10km以上 -28 75 1000.2
20 01:00 東南東 6 10km以上 -30 83 1000.4
20 00:00 東南東 5 10km以上 -30 83 1001.6
19 23:00 南東 5 10km以上 -30 75 1002.8
19 22:00 南東 5 10km以上 -30 75 1003.7
19 21:00 南南東 4 10km以上 -30 75 1005
19 20:00 4 10km以上 -29 75 1006.5
19 19:00 3 10km以上 -30 75 1008.3
19 18:00 3 10km以上 -30 75 1009.8
19 17:00 西南西 3 10km以上 -30 83 1011.1
19 16:26 西南西 3 10km以上 -29 75 1011.7
19 16:00 西南西 3 10km以上 -28 69 1012
19 15:55 西南西 3 10km以上 -28 69 1012
19 15:00 西 3 10km以上 -28 75 1012.8
19 14:00 西北西 4 10km以上 -27 69 1013.8
CYYQ 210400Z 05006KT 15SM SCT011 OVC018 M22/M24 A2984 RMK SF3SC5 SLP112
CYYQ 210300Z 05008KT 15SM OVC025 M22/M25 A2982 RMK SC8 SLP105
CYYQ 210200Z 05009KT 15SM FEW011 M23/M25 A2980 RMK SF2 SLP097
CYYQ 210100Z 06009KT 15SM FEW015 M23/M25 A2977 RMK SC2 SLP087
CYYQ 210027Z 06009KT 15SM FEW013 M22/M24 A2975 RMK SC2 SLP081
CYYQ 210000Z 06009KT 15SM OVC013 M21/M23 A2974 RMK SC8 SLP076
CYYQ 202300Z 06012KT 15SM OVC013 M21/M23 A2970 RMK SC8 SLP065
CYYQ 202200Z 07011KT 10SM OVC011 M20/M22 A2967 RMK SC8 SLP052
CYYQ 202100Z 07013KT 15SM FEW008 OVC013 M20/M22 A2963 RMK SC1SC8 SC TR SLP039
CYYQ 202015Z 08011KT 15SM FEW008 BKN013 M20/M23 A2960 RMK SC1SC7 SC TR SLP030
CYYQ 202000Z 08011KT 15SM SCT013 BKN250 M20/M23 A2959 RMK SC4CI3 SLP027
CYYQ 201900Z 09009KT 15SM FEW015 BKN250 M21/M23 A2958 RMK SC2CI4 SLP022
CYYQ 201800Z 09013KT 15SM FEW011 SCT041 BKN250 M20/M22 A2955 RMK SC1SC3CI3 SLP013
CYYQ 201752Z 09013KT 15SM FEW011 SCT040 BKN250 M20/M22 A2955 RMK SC1SC3CI2 SLP011
CYYQ 201700Z 09016KT 8SM -SN DRSN SCT011 BKN037 M19/M21 A2952 RMK SC3SC4 SLP004
CYYQ 201600Z 09011G16KT 8SM -SN SCT020 BKN035 M19/M21 A2950 RMK SC4SC3 SLP997
CYYQ 201500Z 10015KT 8SM -SN OVC023 M20/M22 A2948 RMK SC8 SLP990
CYYQ 201400Z 10012G17KT 8SM -SN DRSN SCT011 OVC025 M20/M22 A2948 RMK SC4SC4 SLP989
CYYQ 201300Z 10014KT 8SM -SN BKN011 OVC028 M21/M23 A2947 RMK SF5SC3 SLP984
CYYQ 201217Z 11014KT 8SM -SN FEW005 OVC030 M20/M23 A2946 RMK SF1SC7 SLP983
CYYQ 201200Z 11014KT 15SM -SN OVC032 M21/M23 A2946 RMK SC8 SLP982
CYYQ 201100Z 10011KT 15SM -SN OVC042 M22/M25 A2946 RMK SC8 SLP982
CYYQ 201000Z 12011KT 15SM -SN OVC024 M24/M27 A2948 RMK SC8 SLP989
CYYQ 200900Z 13010KT 15SM SCT013 OVC037 M26/M28 A2950 RMK SC4SC4 SLP997
CYYQ 200800Z 13011KT 15SM SCT026 M28/M31 A2952 RMK SC3 SLP002
CYYQ 200700Z 11011KT 15SM SCT190 M30/M32 A2952 RMK CI4 SLP004
CYYQ 200600Z 12010KT 15SM BKN190 M30/M32 A2956 RMK CI8 SLP016
CYYQ 200500Z 14010KT 15SM BKN190 M30/M33 A2960 RMK CI6 SLP028
CYYQ 200400Z 13009KT 15SM SKC M30/M33 A2962 RMK SLP037
CYYQ 200300Z 15008KT 15SM SCT130 M30/M33 A2966 RMK AC3 PRESFR SLP050
CYYQ 200200Z 17007KT 15SM SCT015 OVC130 M29/M32 A2971 RMK SC3AC5 PRESFR SLP065
CYYQ 200100Z 18006KT 15SM BKN015 M30/M33 A2976 RMK SC7 SLP083
CYYQ 200000Z 18006KT 15SM FEW011 SCT140 M30/M33 A2980 RMK SC1AC2 SLP098
CYYQ 192300Z 24006KT 15SM FEW011 SCT250 M30/M32 A2984 RMK SC2CI1 SLP111
CYYQ 192226Z 24005KT 15SM SCT011 M29/M32 A2986 RMK SC4 SLP117
CYYQ 192200Z 24005KT 15SM BKN011 M28/M32 A2987 RMK SC5 SLP120
CYYQ 192155Z 25006KT 15SM BKN011 M28/M32 A2987 RMK SC6 SLP120
CYYQ 192100Z 28005KT 15SM FEW010 BKN250 M28/M31 A2989 RMK SC1CI4 PRESFR SLP128
CYYQ 192000Z 29007KT 15SM FEW020 BKN250 M27/M31 A2992 RMK SC1CI4 SLP138